sensor_id;sensor_type;location;lat;lon;timestamp;pressure;altitude;pressure_sealevel;temperature;humidity
56330;BME280;42236;48.058;10.632;2023-06-04T00:02:38;94691.03;;;13.86;62.43
56330;BME280;42236;48.058;10.632;2023-06-04T00:05:24;94695.25;;;13.84;62.24
56330;BME280;42236;48.058;10.632;2023-06-04T00:08:10;94692.06;;;13.78;62.55
56330;BME280;42236;48.058;10.632;2023-06-04T00:10:56;94700.97;;;13.79;62.63
56330;BME280;42236;48.058;10.632;2023-06-04T00:13:42;94691.56;;;13.73;62.99
56330;BME280;42236;48.058;10.632;2023-06-04T00:16:28;94690.75;;;13.72;63.01
56330;BME280;42236;48.058;10.632;2023-06-04T00:19:16;94698.13;;;13.72;63.07
56330;BME280;42236;48.058;10.632;2023-06-04T00:22:02;94696.13;;;13.69;63.20
56330;BME280;42236;48.058;10.632;2023-06-04T00:25:03;94692.00;;;13.55;67.37
56330;BME280;42236;48.058;10.632;2023-06-04T00:27:49;94703.56;;;13.52;64.14
56330;BME280;42236;48.058;10.632;2023-06-04T00:30:35;94695.41;;;13.52;64.07
56330;BME280;42236;48.058;10.632;2023-06-04T00:33:21;94689.28;;;13.55;63.88
56330;BME280;42236;48.058;10.632;2023-06-04T00:36:09;94686.31;;;13.60;63.89
56330;BME280;42236;48.058;10.632;2023-06-04T00:38:55;94682.31;;;13.54;63.84
56330;BME280;42236;48.058;10.632;2023-06-04T00:41:41;94677.91;;;13.46;64.28
56330;BME280;42236;48.058;10.632;2023-06-04T00:44:27;94681.72;;;13.45;64.32
56330;BME280;42236;48.058;10.632;2023-06-04T00:47:17;94694.94;;;13.47;65.10
56330;BME280;42236;48.058;10.632;2023-06-04T00:50:04;94682.44;;;13.42;64.11
56330;BME280;42236;48.058;10.632;2023-06-04T00:52:51;94688.22;;;13.40;64.47
56330;BME280;42236;48.058;10.632;2023-06-04T00:55:37;94686.22;;;13.37;64.56
56330;BME280;42236;48.058;10.632;2023-06-04T00:58:22;94690.00;;;13.33;64.58
56330;BME280;42236;48.058;10.632;2023-06-04T01:01:42;94697.69;;;13.31;66.41
56330;BME280;42236;48.058;10.632;2023-06-04T01:04:36;94695.88;;;13.19;65.27
56330;BME280;42236;48.058;10.632;2023-06-04T01:07:24;94694.31;;;12.98;64.89
56330;BME280;42236;48.058;10.632;2023-06-04T01:10:13;94694.25;;;12.79;65.44
56330;BME280;42236;48.058;10.632;2023-06-04T01:12:59;94691.56;;;12.63;65.45
56330;BME280;42236;48.058;10.632;2023-06-04T01:15:47;94695.59;;;12.53;66.04
56330;BME280;42236;48.058;10.632;2023-06-04T01:18:34;94691.25;;;12.49;66.51
56330;BME280;42236;48.058;10.632;2023-06-04T01:21:22;94687.69;;;12.45;66.63
56330;BME280;42236;48.058;10.632;2023-06-04T01:24:09;94686.53;;;12.46;66.88
56330;BME280;42236;48.058;10.632;2023-06-04T01:26:54;94688.13;;;12.47;66.98
56330;BME280;42236;48.058;10.632;2023-06-04T01:29:41;94693.53;;;12.47;67.08
56330;BME280;42236;48.058;10.632;2023-06-04T01:32:28;94692.38;;;12.48;67.37
56330;BME280;42236;48.058;10.632;2023-06-04T01:35:14;94697.34;;;12.46;66.96
56330;BME280;42236;48.058;10.632;2023-06-04T01:38:00;94698.00;;;12.23;67.05
56330;BME280;42236;48.058;10.632;2023-06-04T01:40:46;94693.00;;;12.09;67.62
56330;BME280;42236;48.058;10.632;2023-06-04T01:43:32;94689.84;;;12.07;67.65
56330;BME280;42236;48.058;10.632;2023-06-04T01:46:20;94687.53;;;12.06;67.81
56330;BME280;42236;48.058;10.632;2023-06-04T01:49:06;94688.56;;;12.01;68.63
56330;BME280;42236;48.058;10.632;2023-06-04T01:52:12;94695.00;;;11.97;72.08
56330;BME280;42236;48.058;10.632;2023-06-04T01:54:57;94694.63;;;11.98;68.48
56330;BME280;42236;48.058;10.632;2023-06-04T01:57:45;94693.88;;;11.98;68.36
56330;BME280;42236;48.058;10.632;2023-06-04T02:00:31;94699.28;;;11.98;68.85
56330;BME280;42236;48.058;10.632;2023-06-04T02:03:16;94702.22;;;11.92;68.99
56330;BME280;42236;48.058;10.632;2023-06-04T02:06:04;94709.81;;;11.87;69.14
56330;BME280;42236;48.058;10.632;2023-06-04T02:08:52;94708.56;;;11.84;69.18
56330;BME280;42236;48.058;10.632;2023-06-04T02:11:39;94709.25;;;11.81;69.21
56330;BME280;42236;48.058;10.632;2023-06-04T02:14:25;94713.34;;;11.75;69.55
56330;BME280;42236;48.058;10.632;2023-06-04T02:17:11;94702.34;;;11.68;70.27
56330;BME280;42236;48.058;10.632;2023-06-04T02:20:01;94708.25;;;11.58;70.51
56330;BME280;42236;48.058;10.632;2023-06-04T02:22:49;94710.13;;;11.41;71.38
56330;BME280;42236;48.058;10.632;2023-06-04T02:25:35;94707.53;;;11.32;71.95
56330;BME280;42236;48.058;10.632;2023-06-04T02:28:21;94713.31;;;11.31;71.36
56330;BME280;42236;48.058;10.632;2023-06-04T02:31:07;94706.06;;;11.35;70.94
56330;BME280;42236;48.058;10.632;2023-06-04T02:33:52;94705.28;;;11.35;71.08
56330;BME280;42236;48.058;10.632;2023-06-04T02:36:38;94710.59;;;11.31;71.69
56330;BME280;42236;48.058;10.632;2023-06-04T02:39:23;94712.06;;;11.28;71.56
56330;BME280;42236;48.058;10.632;2023-06-04T02:42:09;94711.28;;;11.28;71.48
56330;BME280;42236;48.058;10.632;2023-06-04T02:44:55;94715.13;;;11.27;71.62
56330;BME280;42236;48.058;10.632;2023-06-04T02:47:40;94716.59;;;11.24;71.19
56330;BME280;42236;48.058;10.632;2023-06-04T02:50:26;94716.66;;;11.28;71.19
56330;BME280;42236;48.058;10.632;2023-06-04T02:53:12;94712.06;;;11.28;71.17
56330;BME280;42236;48.058;10.632;2023-06-04T02:55:57;94710.41;;;11.24;71.30
56330;BME280;42236;48.058;10.632;2023-06-04T02:58:55;94701.84;;;11.22;72.46
56330;BME280;42236;48.058;10.632;2023-06-04T03:01:41;94710.97;;;11.17;70.65
56330;BME280;42236;48.058;10.632;2023-06-04T03:04:27;94712.47;;;11.02;71.11
56330;BME280;42236;48.058;10.632;2023-06-04T03:07:20;94718.00;;;10.94;71.27
56330;BME280;42236;48.058;10.632;2023-06-04T03:10:07;94716.44;;;10.93;71.48
56330;BME280;42236;48.058;10.632;2023-06-04T03:12:53;94721.25;;;10.87;71.88
56330;BME280;42236;48.058;10.632;2023-06-04T03:15:38;94718.16;;;10.85;71.76
56330;BME280;42236;48.058;10.632;2023-06-04T03:18:24;94721.63;;;10.85;71.76
56330;BME280;42236;48.058;10.632;2023-06-04T03:21:10;94720.47;;;10.86;72.15
56330;BME280;42236;48.058;10.632;2023-06-04T03:23:58;94716.22;;;10.85;72.00
56330;BME280;42236;48.058;10.632;2023-06-04T03:26:44;94720.47;;;10.86;71.71
56330;BME280;42236;48.058;10.632;2023-06-04T03:29:30;94727.81;;;10.86;71.89
56330;BME280;42236;48.058;10.632;2023-06-04T03:32:16;94728.47;;;10.83;71.96
56330;BME280;42236;48.058;10.632;2023-06-04T03:35:02;94731.19;;;10.83;71.95
56330;BME280;42236;48.058;10.632;2023-06-04T03:37:48;94731.41;;;10.78;72.10
56330;BME280;42236;48.058;10.632;2023-06-04T03:40:34;94740.63;;;10.77;72.30
56330;BME280;42236;48.058;10.632;2023-06-04T03:43:20;94739.72;;;10.73;72.71
56330;BME280;42236;48.058;10.632;2023-06-04T03:46:06;94740.75;;;10.68;73.50
56330;BME280;42236;48.058;10.632;2023-06-04T03:48:52;94740.19;;;10.62;73.60
56330;BME280;42236;48.058;10.632;2023-06-04T03:51:38;94738.84;;;10.68;73.52
56330;BME280;42236;48.058;10.632;2023-06-04T03:54:23;94742.88;;;10.75;73.37
56330;BME280;42236;48.058;10.632;2023-06-04T03:57:09;94743.69;;;10.75;74.56
56330;BME280;42236;48.058;10.632;2023-06-04T03:59:54;94748.25;;;10.75;74.06
56330;BME280;42236;48.058;10.632;2023-06-04T04:02:41;94742.63;;;10.80;73.50
56330;BME280;42236;48.058;10.632;2023-06-04T04:05:28;94753.31;;;10.88;73.16
56330;BME280;42236;48.058;10.632;2023-06-04T04:08:13;94747.81;;;10.97;73.23
56330;BME280;42236;48.058;10.632;2023-06-04T04:11:01;94750.72;;;11.04;72.94
56330;BME280;42236;48.058;10.632;2023-06-04T04:13:47;94754.97;;;11.18;72.74
56330;BME280;42236;48.058;10.632;2023-06-04T04:16:33;94755.59;;;11.39;72.56
56330;BME280;42236;48.058;10.632;2023-06-04T04:19:19;94746.47;;;11.72;71.84
56330;BME280;42236;48.058;10.632;2023-06-04T04:22:06;94751.72;;;12.09;71.35
56330;BME280;42236;48.058;10.632;2023-06-04T04:24:51;94745.63;;;12.59;70.04
56330;BME280;42236;48.058;10.632;2023-06-04T04:27:37;94761.09;;;13.10;68.48
56330;BME280;42236;48.058;10.632;2023-06-04T04:30:26;94761.47;;;13.63;66.86
56330;BME280;42236;48.058;10.632;2023-06-04T04:33:14;94755.44;;;14.13;65.54
56330;BME280;42236;48.058;10.632;2023-06-04T04:36:01;94769.78;;;14.56;64.12
56330;BME280;42236;48.058;10.632;2023-06-04T04:38:47;94769.78;;;14.79;63.20
56330;BME280;42236;48.058;10.632;2023-06-04T04:41:39;94767.00;;;14.98;62.52
56330;BME280;42236;48.058;10.632;2023-06-04T04:44:25;94770.31;;;15.14;62.14
56330;BME280;42236;48.058;10.632;2023-06-04T04:47:10;94777.91;;;15.28;61.53
56330;BME280;42236;48.058;10.632;2023-06-04T04:49:56;94774.59;;;15.42;60.86
56330;BME280;42236;48.058;10.632;2023-06-04T04:52:42;94785.69;;;15.60;60.66
56330;BME280;42236;48.058;10.632;2023-06-04T04:55:28;94776.06;;;15.66;61.50
56330;BME280;42236;48.058;10.632;2023-06-04T04:58:14;94781.06;;;15.91;61.12
56330;BME280;42236;48.058;10.632;2023-06-04T05:01:00;94773.16;;;16.12;60.97
56330;BME280;42236;48.058;10.632;2023-06-04T05:03:46;94779.09;;;16.21;59.87
56330;BME280;42236;48.058;10.632;2023-06-04T05:06:31;94776.03;;;16.30;59.25
56330;BME280;42236;48.058;10.632;2023-06-04T05:09:17;94783.22;;;16.46;58.84
56330;BME280;42236;48.058;10.632;2023-06-04T05:12:03;94788.00;;;16.59;58.11
56330;BME280;42236;48.058;10.632;2023-06-04T05:14:49;94785.28;;;16.59;58.22
56330;BME280;42236;48.058;10.632;2023-06-04T05:17:35;94787.81;;;16.79;57.37
56330;BME280;42236;48.058;10.632;2023-06-04T05:20:21;94792.25;;;16.94;57.02
56330;BME280;42236;48.058;10.632;2023-06-04T05:23:08;94786.13;;;17.12;56.55
56330;BME280;42236;48.058;10.632;2023-06-04T05:25:54;94794.41;;;17.26;56.33
56330;BME280;42236;48.058;10.632;2023-06-04T05:28:40;94792.59;;;17.48;55.61
56330;BME280;42236;48.058;10.632;2023-06-04T05:31:29;94803.56;;;17.59;55.49
56330;BME280;42236;48.058;10.632;2023-06-04T05:34:14;94801.06;;;17.32;55.92
56330;BME280;42236;48.058;10.632;2023-06-04T05:37:02;94805.78;;;17.35;55.96
56330;BME280;42236;48.058;10.632;2023-06-04T05:39:50;94796.88;;;17.49;55.65
56330;BME280;42236;48.058;10.632;2023-06-04T05:42:36;94801.22;;;17.57;55.62
56330;BME280;42236;48.058;10.632;2023-06-04T05:45:22;94804.38;;;17.59;56.05
56330;BME280;42236;48.058;10.632;2023-06-04T05:48:07;94805.47;;;17.51;56.07
56330;BME280;42236;48.058;10.632;2023-06-04T05:50:53;94800.78;;;17.52;56.09
56330;BME280;42236;48.058;10.632;2023-06-04T05:53:46;94802.81;;;17.65;56.57
56330;BME280;42236;48.058;10.632;2023-06-04T05:56:32;94806.78;;;17.75;56.81
56330;BME280;42236;48.058;10.632;2023-06-04T05:59:18;94806.09;;;17.92;56.47
56330;BME280;42236;48.058;10.632;2023-06-04T06:02:04;94810.88;;;18.10;56.36
56330;BME280;42236;48.058;10.632;2023-06-04T06:04:50;94818.69;;;18.19;56.48
56330;BME280;42236;48.058;10.632;2023-06-04T06:07:35;94806.22;;;18.21;56.65
56330;BME280;42236;48.058;10.632;2023-06-04T06:10:21;94816.44;;;18.42;56.55
56330;BME280;42236;48.058;10.632;2023-06-04T06:13:07;94820.38;;;18.63;56.43
56330;BME280;42236;48.058;10.632;2023-06-04T06:15:55;94822.00;;;18.82;55.72
56330;BME280;42236;48.058;10.632;2023-06-04T06:18:41;94822.41;;;18.98;56.20
56330;BME280;42236;48.058;10.632;2023-06-04T06:21:26;94822.41;;;19.05;56.29
56330;BME280;42236;48.058;10.632;2023-06-04T06:24:12;94824.78;;;19.21;55.67
56330;BME280;42236;48.058;10.632;2023-06-04T06:27:01;94836.06;;;19.48;55.24
56330;BME280;42236;48.058;10.632;2023-06-04T06:29:47;94838.41;;;19.71;54.65
56330;BME280;42236;48.058;10.632;2023-06-04T06:32:35;94837.97;;;19.94;52.81
56330;BME280;42236;48.058;10.632;2023-06-04T06:38:31;94835.75;;;20.63;51.28
56330;BME280;42236;48.058;10.632;2023-06-04T06:41:17;94836.94;;;20.55;50.91
56330;BME280;42236;48.058;10.632;2023-06-04T06:44:06;94830.78;;;20.33;51.02
56330;BME280;42236;48.058;10.632;2023-06-04T06:46:51;94828.09;;;20.18;50.52
56330;BME280;42236;48.058;10.632;2023-06-04T06:49:37;94843.06;;;19.92;50.63
56330;BME280;42236;48.058;10.632;2023-06-04T06:52:23;94846.22;;;19.51;51.33
56330;BME280;42236;48.058;10.632;2023-06-04T06:55:09;94840.78;;;19.37;52.07
56330;BME280;42236;48.058;10.632;2023-06-04T06:57:55;94835.69;;;19.25;51.94
56330;BME280;42236;48.058;10.632;2023-06-04T07:00:41;94843.09;;;18.95;52.64
56330;BME280;42236;48.058;10.632;2023-06-04T07:03:26;94838.41;;;18.82;52.98
56330;BME280;42236;48.058;10.632;2023-06-04T07:06:12;94839.13;;;18.64;53.25
56330;BME280;42236;48.058;10.632;2023-06-04T07:08:58;94838.31;;;18.60;52.82
56330;BME280;42236;48.058;10.632;2023-06-04T07:11:44;94839.47;;;18.52;52.98
56330;BME280;42236;48.058;10.632;2023-06-04T07:14:30;94834.41;;;18.58;52.91
56330;BME280;42236;48.058;10.632;2023-06-04T07:17:16;94832.06;;;18.49;53.02
56330;BME280;42236;48.058;10.632;2023-06-04T07:20:01;94836.75;;;18.48;52.97
56330;BME280;42236;48.058;10.632;2023-06-04T07:22:49;94845.28;;;18.32;53.31
56330;BME280;42236;48.058;10.632;2023-06-04T07:25:35;94842.56;;;18.40;53.36
56330;BME280;42236;48.058;10.632;2023-06-04T07:28:20;94839.91;;;18.61;52.83
56330;BME280;42236;48.058;10.632;2023-06-04T07:31:06;94836.00;;;18.69;52.84
56330;BME280;42236;48.058;10.632;2023-06-04T07:33:52;94842.63;;;18.65;52.36
56330;BME280;42236;48.058;10.632;2023-06-04T07:36:38;94836.34;;;18.50;53.05
56330;BME280;42236;48.058;10.632;2023-06-04T07:39:23;94841.44;;;18.55;53.27
56330;BME280;42236;48.058;10.632;2023-06-04T07:42:09;94845.78;;;18.70;52.78
56330;BME280;42236;48.058;10.632;2023-06-04T07:44:55;94844.66;;;18.86;52.87
56330;BME280;42236;48.058;10.632;2023-06-04T07:47:42;94846.22;;;18.83;52.95
56330;BME280;42236;48.058;10.632;2023-06-04T07:50:28;94836.84;;;18.91;52.37
56330;BME280;42236;48.058;10.632;2023-06-04T07:53:14;94840.75;;;18.90;52.77
56330;BME280;42236;48.058;10.632;2023-06-04T07:55:59;94839.19;;;18.93;52.68
56330;BME280;42236;48.058;10.632;2023-06-04T07:59:06;94839.59;;;18.95;52.92
56330;BME280;42236;48.058;10.632;2023-06-04T08:01:52;94843.13;;;18.92;52.83
56330;BME280;42236;48.058;10.632;2023-06-04T08:04:38;94841.53;;;18.98;52.64
56330;BME280;42236;48.058;10.632;2023-06-04T08:07:24;94830.63;;;19.09;52.10
56330;BME280;42236;48.058;10.632;2023-06-04T08:10:10;94835.31;;;19.19;51.66
56330;BME280;42236;48.058;10.632;2023-06-04T08:12:56;94845.84;;;19.35;51.57
56330;BME280;42236;48.058;10.632;2023-06-04T08:15:42;94835.31;;;19.23;51.87
56330;BME280;42236;48.058;10.632;2023-06-04T08:18:28;94834.53;;;19.29;51.87
56330;BME280;42236;48.058;10.632;2023-06-04T08:21:14;94834.50;;;19.40;51.16
56330;BME280;42236;48.058;10.632;2023-06-04T08:24:10;94836.88;;;19.52;51.08
56330;BME280;42236;48.058;10.632;2023-06-04T08:26:56;94835.66;;;19.75;51.26
56330;BME280;42236;48.058;10.632;2023-06-04T08:29:42;94839.91;;;20.01;50.63
56330;BME280;42236;48.058;10.632;2023-06-04T08:32:28;94839.47;;;20.13;50.15
56330;BME280;42236;48.058;10.632;2023-06-04T08:35:13;94843.06;;;19.96;50.41
56330;BME280;42236;48.058;10.632;2023-06-04T08:37:59;94841.88;;;19.90;50.09
56330;BME280;42236;48.058;10.632;2023-06-04T08:40:45;94844.25;;;19.88;50.31
56330;BME280;42236;48.058;10.632;2023-06-04T08:43:32;94834.88;;;19.78;50.10
56330;BME280;42236;48.058;10.632;2023-06-04T08:46:20;94837.59;;;19.85;49.90
56330;BME280;42236;48.058;10.632;2023-06-04T08:49:07;94844.19;;;20.06;49.76
56330;BME280;42236;48.058;10.632;2023-06-04T08:51:58;94843.03;;;20.03;49.52
56330;BME280;42236;48.058;10.632;2023-06-04T08:54:44;94836.72;;;20.17;49.98
56330;BME280;42236;48.058;10.632;2023-06-04T08:57:30;94840.25;;;20.14;49.70
56330;BME280;42236;48.058;10.632;2023-06-04T09:00:17;94840.94;;;20.39;49.44
56330;BME280;42236;48.058;10.632;2023-06-04T09:03:03;94846.78;;;20.45;48.44
56330;BME280;42236;48.058;10.632;2023-06-04T09:05:57;94839.69;;;20.51;48.41
56330;BME280;42236;48.058;10.632;2023-06-04T09:08:44;94838.09;;;20.61;48.42
56330;BME280;42236;48.058;10.632;2023-06-04T09:11:37;94845.88;;;20.70;47.70
56330;BME280;42236;48.058;10.632;2023-06-04T09:14:25;94843.41;;;20.89;47.51
56330;BME280;42236;48.058;10.632;2023-06-04T09:17:11;94843.03;;;20.87;46.91
56330;BME280;42236;48.058;10.632;2023-06-04T09:19:57;94837.16;;;20.89;47.10
56330;BME280;42236;48.058;10.632;2023-06-04T09:22:43;94846.06;;;21.04;46.50
56330;BME280;42236;48.058;10.632;2023-06-04T09:25:34;94844.75;;;21.26;46.20
56330;BME280;42236;48.058;10.632;2023-06-04T09:28:20;94852.53;;;21.31;45.75
56330;BME280;42236;48.058;10.632;2023-06-04T09:31:14;94839.66;;;21.21;45.47
56330;BME280;42236;48.058;10.632;2023-06-04T09:34:08;94842.34;;;21.28;45.48
56330;BME280;42236;48.058;10.632;2023-06-04T09:37:14;94842.44;;;21.14;42.89
56330;BME280;42236;48.058;10.632;2023-06-04T09:40:00;94841.56;;;21.28;44.73
56330;BME280;42236;48.058;10.632;2023-06-04T09:42:48;94843.88;;;21.33;44.00
56330;BME280;42236;48.058;10.632;2023-06-04T09:45:39;94840.25;;;21.50;44.22
56330;BME280;42236;48.058;10.632;2023-06-04T09:48:25;94841.91;;;21.37;43.99
56330;BME280;42236;48.058;10.632;2023-06-04T09:51:12;94839.91;;;21.38;43.66
56330;BME280;42236;48.058;10.632;2023-06-04T09:54:00;94834.41;;;21.45;43.23
56330;BME280;42236;48.058;10.632;2023-06-04T09:56:46;94829.16;;;21.61;42.97
56330;BME280;42236;48.058;10.632;2023-06-04T09:59:38;94831.97;;;21.54;40.51
56330;BME280;42236;48.058;10.632;2023-06-04T10:02:26;94826.41;;;21.61;42.35
56330;BME280;42236;48.058;10.632;2023-06-04T10:05:15;94828.66;;;21.73;42.45
56330;BME280;42236;48.058;10.632;2023-06-04T10:08:03;94831.69;;;21.83;41.45
56330;BME280;42236;48.058;10.632;2023-06-04T10:10:59;94829.31;;;21.85;40.95
56330;BME280;42236;48.058;10.632;2023-06-04T10:16:56;94829.19;;;21.95;39.38
56330;BME280;42236;48.058;10.632;2023-06-04T10:19:46;94838.66;;;21.91;39.70
56330;BME280;42236;48.058;10.632;2023-06-04T10:22:40;94826.84;;;21.56;39.44
56330;BME280;42236;48.058;10.632;2023-06-04T10:25:26;94823.63;;;21.65;39.82
56330;BME280;42236;48.058;10.632;2023-06-04T10:28:13;94838.72;;;21.84;40.14
56330;BME280;42236;48.058;10.632;2023-06-04T10:31:00;94831.13;;;21.99;39.86
56330;BME280;42236;48.058;10.632;2023-06-04T10:33:47;94829.16;;;21.99;39.18
56330;BME280;42236;48.058;10.632;2023-06-04T10:37:03;94828.94;;;21.83;38.63
56330;BME280;42236;48.058;10.632;2023-06-04T10:39:58;94826.59;;;21.81;40.26
56330;BME280;42236;48.058;10.632;2023-06-04T10:42:43;94828.03;;;21.93;40.22
56330;BME280;42236;48.058;10.632;2023-06-04T10:45:29;94825.06;;;21.80;39.40
56330;BME280;42236;48.058;10.632;2023-06-04T10:48:16;94822.38;;;21.73;39.96
56330;BME280;42236;48.058;10.632;2023-06-04T10:51:03;94818.81;;;21.76;39.61
56330;BME280;42236;48.058;10.632;2023-06-04T10:53:49;94833.09;;;21.60;39.35
56330;BME280;42236;48.058;10.632;2023-06-04T10:56:35;94827.53;;;21.67;39.39
56330;BME280;42236;48.058;10.632;2023-06-04T10:59:22;94821.03;;;21.88;38.79
56330;BME280;42236;48.058;10.632;2023-06-04T11:02:12;94826.66;;;22.12;38.32
56330;BME280;42236;48.058;10.632;2023-06-04T11:05:05;94823.50;;;22.13;38.00
56330;BME280;42236;48.058;10.632;2023-06-04T11:07:57;94828.56;;;22.19;37.86
56330;BME280;42236;48.058;10.632;2023-06-04T11:10:44;94830.09;;;22.23;37.89
56330;BME280;42236;48.058;10.632;2023-06-04T11:13:30;94818.31;;;22.23;38.34
56330;BME280;42236;48.058;10.632;2023-06-04T11:16:17;94819.34;;;22.36;38.49
56330;BME280;42236;48.058;10.632;2023-06-04T11:19:03;94821.78;;;22.30;37.75
56330;BME280;42236;48.058;10.632;2023-06-04T11:21:53;94825.69;;;22.29;36.51
56330;BME280;42236;48.058;10.632;2023-06-04T11:24:39;94821.47;;;22.17;37.22
56330;BME280;42236;48.058;10.632;2023-06-04T11:27:33;94821.09;;;22.19;36.80
56330;BME280;42236;48.058;10.632;2023-06-04T11:30:20;94820.88;;;22.37;37.09
56330;BME280;42236;48.058;10.632;2023-06-04T11:33:05;94820.47;;;22.39;37.29
56330;BME280;42236;48.058;10.632;2023-06-04T11:35:51;94820.44;;;22.42;37.36
56330;BME280;42236;48.058;10.632;2023-06-04T11:38:37;94819.94;;;22.51;37.07
56330;BME280;42236;48.058;10.632;2023-06-04T11:41:27;94809.41;;;22.73;36.34
56330;BME280;42236;48.058;10.632;2023-06-04T11:44:13;94824.16;;;22.86;36.18
56330;BME280;42236;48.058;10.632;2023-06-04T11:47:00;94815.75;;;22.70;36.12
56330;BME280;42236;48.058;10.632;2023-06-04T11:49:45;94822.69;;;22.78;35.77
56330;BME280;42236;48.058;10.632;2023-06-04T11:52:31;94819.47;;;22.83;36.02
56330;BME280;42236;48.058;10.632;2023-06-04T11:55:19;94821.25;;;23.00;35.98
56330;BME280;42236;48.058;10.632;2023-06-04T11:58:07;94818.72;;;23.10;35.75
56330;BME280;42236;48.058;10.632;2023-06-04T12:00:55;94811.00;;;22.97;35.41
56330;BME280;42236;48.058;10.632;2023-06-04T12:03:42;94815.38;;;22.98;35.59
56330;BME280;42236;48.058;10.632;2023-06-04T12:06:28;94815.25;;;22.78;35.11
56330;BME280;42236;48.058;10.632;2023-06-04T12:09:20;94814.41;;;22.82;35.21
56330;BME280;42236;48.058;10.632;2023-06-04T12:15:01;94815.81;;;23.20;35.06
56330;BME280;42236;48.058;10.632;2023-06-04T12:17:50;94815.72;;;23.24;34.75
56330;BME280;42236;48.058;10.632;2023-06-04T12:20:38;94807.19;;;23.18;34.75
56330;BME280;42236;48.058;10.632;2023-06-04T12:23:26;94805.38;;;23.08;34.47
56330;BME280;42236;48.058;10.632;2023-06-04T12:26:22;94803.53;;;23.25;33.84
56330;BME280;42236;48.058;10.632;2023-06-04T12:29:18;94808.44;;;23.37;32.87
56330;BME280;42236;48.058;10.632;2023-06-04T12:34:56;94806.94;;;23.33;33.56
56330;BME280;42236;48.058;10.632;2023-06-04T12:37:51;94807.19;;;23.42;32.56
56330;BME280;42236;48.058;10.632;2023-06-04T12:40:37;94813.47;;;23.42;33.67
56330;BME280;42236;48.058;10.632;2023-06-04T12:43:24;94807.00;;;23.53;33.64
56330;BME280;42236;48.058;10.632;2023-06-04T12:46:11;94806.19;;;23.56;32.92
56330;BME280;42236;48.058;10.632;2023-06-04T12:49:00;94801.94;;;23.51;33.26
56330;BME280;42236;48.058;10.632;2023-06-04T12:51:58;94800.31;;;23.54;33.37
56330;BME280;42236;48.058;10.632;2023-06-04T12:54:44;94803.66;;;23.41;33.24
56330;BME280;42236;48.058;10.632;2023-06-04T12:57:30;94803.31;;;23.39;33.88
56330;BME280;42236;48.058;10.632;2023-06-04T13:00:16;94804.38;;;23.46;33.81
56330;BME280;42236;48.058;10.632;2023-06-04T13:03:02;94797.47;;;23.57;32.84
56330;BME280;42236;48.058;10.632;2023-06-04T13:05:53;94800.97;;;23.61;31.25
56330;BME280;42236;48.058;10.632;2023-06-04T13:08:39;94802.09;;;23.64;32.69
56330;BME280;42236;48.058;10.632;2023-06-04T13:11:25;94801.31;;;23.63;32.48
56330;BME280;42236;48.058;10.632;2023-06-04T13:14:11;94797.06;;;23.59;32.08
56330;BME280;42236;48.058;10.632;2023-06-04T13:17:00;94800.84;;;23.69;31.75
56330;BME280;42236;48.058;10.632;2023-06-04T13:19:46;94809.91;;;23.89;32.29
56330;BME280;42236;48.058;10.632;2023-06-04T13:22:32;94817.78;;;23.91;32.31
56330;BME280;42236;48.058;10.632;2023-06-04T13:25:18;94808.25;;;23.95;32.81
56330;BME280;42236;48.058;10.632;2023-06-04T13:28:04;94802.50;;;23.86;32.48
56330;BME280;42236;48.058;10.632;2023-06-04T13:30:50;94808.50;;;23.81;31.99
56330;BME280;42236;48.058;10.632;2023-06-04T13:33:36;94807.66;;;23.84;32.27
56330;BME280;42236;48.058;10.632;2023-06-04T13:36:22;94808.50;;;24.01;32.13
56330;BME280;42236;48.058;10.632;2023-06-04T13:39:08;94812.53;;;23.96;31.90
56330;BME280;42236;48.058;10.632;2023-06-04T13:41:53;94799.75;;;24.06;32.00
56330;BME280;42236;48.058;10.632;2023-06-04T13:44:39;94801.19;;;24.14;32.43
56330;BME280;42236;48.058;10.632;2023-06-04T13:47:25;94813.25;;;24.20;31.67
56330;BME280;42236;48.058;10.632;2023-06-04T13:50:11;94814.66;;;24.09;32.15
56330;BME280;42236;48.058;10.632;2023-06-04T13:52:57;94808.44;;;24.24;31.79
56330;BME280;42236;48.058;10.632;2023-06-04T13:55:43;94802.78;;;24.32;32.19
56330;BME280;42236;48.058;10.632;2023-06-04T13:58:29;94817.97;;;24.40;31.92
56330;BME280;42236;48.058;10.632;2023-06-04T14:01:14;94812.91;;;24.38;31.73
56330;BME280;42236;48.058;10.632;2023-06-04T14:04:00;94806.13;;;24.23;31.82
56330;BME280;42236;48.058;10.632;2023-06-04T14:06:46;94808.09;;;24.22;32.04
56330;BME280;42236;48.058;10.632;2023-06-04T14:09:32;94806.31;;;24.32;31.67
56330;BME280;42236;48.058;10.632;2023-06-04T14:12:21;94811.94;;;24.28;31.71
56330;BME280;42236;48.058;10.632;2023-06-04T14:15:08;94811.56;;;24.26;32.12
56330;BME280;42236;48.058;10.632;2023-06-04T14:17:54;94812.72;;;24.09;32.11
56330;BME280;42236;48.058;10.632;2023-06-04T14:20:40;94810.78;;;23.86;32.39
56330;BME280;42236;48.058;10.632;2023-06-04T14:23:37;94808.88;;;23.83;31.08
56330;BME280;42236;48.058;10.632;2023-06-04T14:26:23;94805.41;;;23.99;32.20
56330;BME280;42236;48.058;10.632;2023-06-04T14:29:10;94802.38;;;24.13;31.97
56330;BME280;42236;48.058;10.632;2023-06-04T14:31:56;94804.34;;;24.33;31.53
56330;BME280;42236;48.058;10.632;2023-06-04T14:34:41;94805.06;;;24.37;31.44
56330;BME280;42236;48.058;10.632;2023-06-04T14:37:27;94810.47;;;24.40;31.59
56330;BME280;42236;48.058;10.632;2023-06-04T14:40:16;94807.31;;;24.42;31.78
56330;BME280;42236;48.058;10.632;2023-06-04T14:43:02;94809.88;;;24.53;30.95
56330;BME280;42236;48.058;10.632;2023-06-04T14:46:00;94797.19;;;24.35;30.36
56330;BME280;42236;48.058;10.632;2023-06-04T14:48:45;94792.06;;;24.17;31.58